Time;durP1;ratioP1;P1;durP2;ratioP2;P2;SDS_P1;SDS_P2;PMS_P1;PMS_P2;Temp;Humidity;BMP_temperature;BMP_pressure;BME280_temperature;BME280_humidity;BME280_pressure;Samples;Min_cycle;Max_cycle;Signal;HPM_P1;HPM_P2
2023/09/20 00:06:47;;;;;;;7.72;2.33;;;;;;;15.51;54.96;100655.63;15658270;28;20052;-49
2023/09/20 00:14:21;;;;;;;7.95;2.50;;;;;;;15.67;54.64;100639.69;15675871;28;20051;-46
2023/09/20 00:21:54;;;;;;;7.72;2.20;;;;;;;15.65;55.30;100644.50;15658717;28;20132;-45
2023/09/20 00:29:29;;;;;;;6.30;2.13;;;;;;;15.99;54.47;100645.31;15678415;28;20080;-46
2023/09/20 00:37:01;;;;;;;4.93;2.08;;;;;;;15.88;54.40;100649.75;15643796;28;20276;-45
2023/09/20 00:44:36;;;;;;;;;;;;;;;15.63;55.54;100652.84;15668404;28;20037;-45
2023/09/20 00:52:12;;;;;;;9.75;2.60;;;;;;;15.67;55.51;100647.81;15665234;28;19978;-45
2023/09/20 00:59:48;;;;;;;9.48;2.75;;;;;;;15.91;54.68;100654.69;15650180;28;20056;-45
2023/09/20 01:07:21;;;;;;;5.32;2.35;;;;;;;15.43;55.95;100657.91;15648234;28;20052;-47
2023/09/20 01:14:57;;;;;;;5.43;2.50;;;;;;;15.77;55.38;100666.91;15683334;28;20041;-45
2023/09/20 01:22:31;;;;;;;8.93;2.67;;;;;;;15.64;55.92;100667.22;15665301;28;20545;-48
2023/09/20 01:30:08;;;;;;;5.75;2.40;;;;;;;15.55;56.08;100664.06;15662107;28;20040;-46
2023/09/20 01:37:44;;;;;;;4.80;2.15;;;;;;;15.43;56.83;100655.19;15658861;28;20040;-46
2023/09/20 01:45:19;;;;;;;6.32;2.47;;;;;;;15.56;56.66;100644.88;15680379;28;20045;-47
2023/09/20 01:52:56;;;;;;;6.32;2.15;;;;;;;15.37;57.30;100651.59;15646784;28;20502;-46
2023/09/20 02:00:31;;;;;;;7.20;2.53;;;;;;;15.27;57.86;100644.13;15639522;28;20494;-45
2023/09/20 02:08:08;;;;;;;7.60;2.47;;;;;;;15.12;58.33;100645.75;15663307;28;20052;-48
2023/09/20 02:15:41;;;;;;;6.22;2.28;;;;;;;15.10;58.99;100650.56;15656301;28;20503;-46
2023/09/20 02:23:16;;;;;;;6.57;2.30;;;;;;;15.39;58.08;100640.53;15677980;28;20087;-46
2023/09/20 02:30:50;;;;;;;6.53;2.05;;;;;;;15.46;58.05;100639.31;15661521;28;20060;-46
2023/09/20 02:38:28;;;;;;;10.85;2.45;;;;;;;15.24;59.48;100635.66;15667599;22;20390;-49
2023/09/20 02:46:05;;;;;;;8.23;2.38;;;;;;;15.19;59.59;100635.59;15614421;28;20491;-50
2023/09/20 02:53:40;;;;;;;7.78;2.63;;;;;;;15.41;58.98;100638.41;15598484;28;20045;-50
2023/09/20 03:01:16;;;;;;;7.10;2.45;;;;;;;15.70;58.26;100620.25;15597790;28;20078;-49
2023/09/20 03:08:53;;;;;;;7.03;2.03;;;;;;;15.65;58.50;100617.44;15589466;28;20049;-50
2023/09/20 03:16:33;;;;;;;4.93;2.38;;;;;;;15.38;59.55;100628.06;15596844;28;20033;-51
2023/09/20 03:24:08;;;;;;;6.15;2.15;;;;;;;15.50;59.53;100624.22;15597061;28;20061;-50
2023/09/20 03:31:43;;;;;;;5.03;2.40;;;;;;;15.37;60.20;100632.66;15613983;28;20073;-47
2023/09/20 03:39:24;;;;;;;6.68;2.60;;;;;;;15.35;60.65;100629.41;15596144;28;20533;-50
2023/09/20 03:47:00;;;;;;;7.32;2.47;;;;;;;15.56;60.00;100623.25;15596296;28;20040;-50
2023/09/20 03:54:34;;;;;;;7.57;2.75;;;;;;;15.69;59.86;100624.84;15596393;28;20045;-50
2023/09/20 04:02:13;;;;;;;6.32;2.05;;;;;;;15.25;61.41;100623.81;15596571;28;20125;-47
2023/09/20 04:09:48;;;;;;;5.78;2.35;;;;;;;15.38;61.26;100623.47;15598744;28;20457;-49
2023/09/20 04:17:25;;;;;;;6.75;2.40;;;;;;;15.43;61.39;100628.97;15606080;28;20044;-47
2023/09/20 04:25:00;;;;;;;6.78;2.13;;;;;;;15.26;61.72;100637.09;15590075;28;20053;-48
2023/09/20 04:32:34;;;;;;;4.68;2.03;;;;;;;15.09;62.53;100625.41;15545271;28;20046;-49
2023/09/20 04:40:11;;;;;;;6.80;2.03;;;;;;;14.97;62.85;100639.00;15545204;28;20046;-49
2023/09/20 04:47:45;;;;;;;6.70;2.17;;;;;;;15.27;62.24;100651.41;15546894;28;20071;-49
2023/09/20 04:55:24;;;;;;;6.95;2.42;;;;;;;14.94;63.69;100657.56;15540917;28;20490;-50
2023/09/20 05:02:57;;;;;;;9.45;2.40;;;;;;;14.95;63.59;100659.19;15621630;28;20133;-49
2023/09/20 05:10:33;;;;;;;6.95;2.28;;;;;;;15.29;62.37;100654.69;15579027;28;20042;-50
2023/09/20 05:18:07;;;;;;;7.25;2.25;;;;;;;14.98;64.43;100651.44;15555740;28;20088;-51
2023/09/20 05:25:43;;;;;;;6.53;2.05;;;;;;;15.20;63.75;100657.00;15595457;28;20044;-48
2023/09/20 05:33:16;;;;;;;7.45;2.45;;;;;;;15.03;64.42;100665.06;15603260;28;20041;-47
2023/09/20 05:40:51;;;;;;;;;;;;;;;15.06;65.06;100663.72;15615799;28;20581;-51
2023/09/20 05:48:24;;;;;;;7.88;2.30;;;;;;;14.97;65.61;100679.53;15602626;28;19967;-51
2023/09/20 05:56:06;;;;;;;8.95;2.17;;;;;;;15.34;64.52;100681.00;15614219;28;20128;-48
2023/09/20 06:03:41;;;;;;;4.95;2.17;;;;;;;15.49;64.31;100687.53;15618321;28;20136;-49
2023/09/20 06:11:18;;;;;;;5.28;2.05;;;;;;;15.97;63.44;100680.75;15599609;28;20041;-49
2023/09/20 06:18:52;;;;;;;5.35;2.28;;;;;;;15.82;63.62;100691.34;15616070;28;20469;-49
2023/09/20 06:26:28;;;;;;;10.15;2.35;;;;;;;15.73;64.22;100685.53;15616689;28;20045;-50
2023/09/20 06:34:02;;;;;;;6.07;1.80;;;;;;;16.17;64.17;100695.66;15616694;28;20397;-48
2023/09/20 06:41:40;;;;;;;7.53;2.13;;;;;;;16.52;63.09;100714.31;15598829;28;20087;-49
2023/09/20 06:49:15;;;;;;;6.40;1.85;;;;;;;16.90;61.87;100702.63;15598025;28;20061;-49
2023/09/20 06:56:50;;;;;;;7.45;1.70;;;;;;;17.51;60.23;100707.91;15613905;28;20042;-50
2023/09/20 07:04:25;;;;;;;4.63;1.70;;;;;;;17.55;59.94;100715.28;15613238;28;20064;-52
2023/09/20 07:12:01;;;;;;;4.80;1.70;;;;;;;17.55;60.55;100715.28;15599243;28;20145;-51
2023/09/20 07:19:37;;;;;;;7.18;2.03;;;;;;;18.03;59.42;100716.25;15600716;28;20037;-48
2023/09/20 07:27:14;;;;;;;4.85;1.60;;;;;;;18.14;58.41;100724.47;15610652;28;20502;-54
2023/09/20 07:34:56;;;;;;;7.50;1.60;;;;;;;19.15;57.15;100721.47;15613339;28;20073;-50
2023/09/20 07:42:31;;;;;;;5.90;1.70;;;;;;;18.52;57.32;100715.22;15621499;28;20522;-51
2023/09/20 07:50:07;;;;;;;6.57;1.85;;;;;;;18.88;57.59;100723.56;15627222;28;20044;-50
2023/09/20 07:57:42;;;;;;;5.90;1.98;;;;;;;19.03;57.08;100721.72;15625985;28;20077;-51
2023/09/20 08:05:15;;;;;;;6.15;1.95;;;;;;;19.85;55.31;100728.16;15625762;28;20502;-50
2023/09/20 08:12:51;;;;;;;4.57;1.73;;;;;;;20.19;54.63;100732.22;15625556;28;20115;-51
2023/09/20 08:20:26;;;;;;;6.38;1.73;;;;;;;19.64;54.92;100725.72;15620414;28;20052;-49
2023/09/20 08:59:51;;;;;;;7.10;1.95;;;;;;;20.28;53.98;100741.47;15486479;28;20079;-48
2023/09/20 09:07:24;;;;;;;5.03;1.30;;;;;;;20.71;52.51;100733.78;15493640;28;20549;-49
2023/09/20 09:14:59;;;;;;;3.85;1.70;;;;;;;20.46;52.98;100732.72;15498428;28;20050;-51
2023/09/20 09:22:35;;;;;;;7.53;1.90;;;;;;;20.79;53.46;100727.75;15492682;28;20062;-54
2023/09/20 09:30:12;;;;;;;8.02;1.65;;;;;;;20.66;52.76;100733.78;15493089;28;20376;-52
2023/09/20 09:37:46;;;;;;;7.80;1.80;;;;;;;21.10;52.30;100721.06;15492654;28;20066;-52
2023/09/20 09:45:31;;;;;;;5.78;1.45;;;;;;;20.92;53.44;100716.22;15477721;28;20054;-51
2023/09/20 09:53:08;;;;;;;10.10;1.63;;;;;;;21.21;52.87;100723.72;15491648;28;20070;-48
2023/09/20 10:00:48;;;;;;;4.55;1.50;;;;;;;20.87;53.16;100711.63;15491137;28;20065;-47
2023/09/20 10:08:24;;;;;;;4.03;1.40;;;;;;;21.94;51.38;100706.59;15490835;28;20510;-51
2023/09/20 10:16:01;;;;;;;6.40;1.65;;;;;;;21.77;51.42;100699.59;15491172;28;20046;-49
2023/09/20 10:23:36;;;;;;;6.20;1.75;;;;;;;23.31;48.32;100696.00;15490980;28;20511;-46
2023/09/20 10:31:15;;;;;;;6.88;1.73;;;;;;;23.36;47.83;100685.81;15489795;28;20078;-48
2023/09/20 10:38:48;;;;;;;8.95;1.77;;;;;;;23.38;47.41;100682.75;15488181;28;20051;-49
2023/09/20 10:46:23;;;;;;;7.03;1.67;;;;;;;23.21;48.33;100669.56;15488788;28;20475;-44
2023/09/20 10:53:58;;;;;;;3.95;1.80;;;;;;;21.57;51.11;100677.94;15487309;28;20074;-47
2023/09/20 11:01:35;;;;;;;4.50;1.75;;;;;;;22.26;49.43;100654.91;15487345;28;20054;-49
2023/09/20 11:09:11;;;;;;;4.50;1.40;;;;;;;22.44;48.83;100652.53;15487413;28;20108;-50
2023/09/20 11:16:46;;;;;;;5.63;1.70;;;;;;;23.76;46.66;100647.91;15486568;28;20052;-46
2023/09/20 11:24:19;;;;;;;6.85;1.30;;;;;;;23.90;46.11;100642.47;15494133;28;20042;-49
2023/09/20 11:31:58;;;;;;;5.68;1.38;;;;;;;25.10;44.56;100630.44;15487307;28;20431;-49
2023/09/20 11:39:31;;;;;;;5.93;1.50;;;;;;;25.99;42.47;100632.34;15491463;28;20042;-49
2023/09/20 11:47:07;;;;;;;8.13;1.38;;;;;;;25.60;41.77;100624.81;15491128;28;20101;-50
2023/09/20 11:55:30;;;;;;;5.20;1.27;;;;;;;24.59;42.98;100626.06;15470455;28;20043;-52
2023/09/20 12:03:05;;;;;;;6.82;1.20;;;;;;;24.80;43.63;100621.72;15472211;28;20047;-49
2023/09/20 12:10:40;;;;;;;7.38;1.50;;;;;;;24.20;45.23;100616.38;15486558;28;20550;-51
2023/09/20 12:18:15;;;;;;;2.22;1.17;;;;;;;24.91;42.80;100603.94;15485500;28;20097;-53
2023/09/20 12:25:48;;;;;;;6.15;1.38;;;;;;;25.62;43.55;100589.59;15488585;28;20237;-51
2023/09/20 12:33:24;;;;;;;5.97;1.30;;;;;;;25.30;42.77;100596.19;15499804;28;20050;-51
2023/09/20 12:40:57;;;;;;;4.75;1.27;;;;;;;25.09;42.45;100584.88;15495208;28;20081;-55
2023/09/20 12:48:36;;;;;;;3.13;1.20;;;;;;;24.49;43.18;100574.94;15495711;28;20046;-49
2023/09/20 12:56:11;;;;;;;4.35;1.40;;;;;;;25.03;41.95;100564.91;15494418;28;20034;-50
2023/09/20 13:03:47;;;;;;;3.60;1.27;;;;;;;25.77;41.13;100555.41;15493421;28;20046;-49
2023/09/20 13:11:20;;;;;;;2.65;1.35;;;;;;;26.61;39.23;100544.16;15493720;28;20376;-50
2023/09/20 13:18:55;;;;;;;4.47;1.30;;;;;;;26.45;39.24;100546.59;15492783;28;20411;-54
2023/09/20 13:26:30;;;;;;;4.68;1.40;;;;;;;26.35;39.14;100555.13;15482970;28;20038;-51
2023/09/20 13:34:15;;;;;;;6.85;1.40;;;;;;;25.50;40.52;100554.44;15491205;28;20053;-53
2023/09/20 13:41:49;;;;;;;3.92;1.25;;;;;;;24.96;42.28;100552.75;15473470;28;20491;-51
2023/09/20 13:49:23;;;;;;;3.65;1.48;;;;;;;25.16;41.85;100553.09;15489736;28;20034;-54
2023/09/20 13:56:57;;;;;;;6.10;1.77;;;;;;;24.74;42.69;100548.06;15491331;28;20065;-51
2023/09/20 14:04:32;;;;;;;5.15;1.33;;;;;;;24.43;43.02;100535.84;15490922;28;20504;-54
2023/09/20 14:12:09;;;;;;;7.85;1.60;;;;;;;24.65;43.58;100537.00;15490009;28;20134;-49
2023/09/20 14:19:44;;;;;;;6.50;1.70;;;;;;;25.27;42.42;100522.63;15472165;28;20042;-47
2023/09/20 14:27:17;;;;;;;3.55;1.50;;;;;;;25.15;42.88;100518.50;15490933;28;20579;-47
2023/09/20 14:34:51;;;;;;;2.92;1.45;;;;;;;25.48;41.77;100509.16;15489800;28;20464;-47
2023/09/20 14:42:25;;;;;;;6.80;1.88;;;;;;;25.26;42.41;100508.06;15626132;23;20170;-49
2023/09/20 14:50:01;;;;;;;5.30;1.40;;;;;;;25.03;42.82;100504.50;15659605;28;20037;-48
2023/09/20 14:57:35;;;;;;;3.72;1.70;;;;;;;24.86;43.33;100502.47;15676695;28;20083;-47
2023/09/20 15:05:11;;;;;;;7.63;1.40;;;;;;;24.50;43.80;100491.50;15676235;28;20048;-47
2023/09/20 15:12:48;;;;;;;8.20;1.55;;;;;;;25.04;43.48;100497.91;15676908;28;20045;-47
2023/09/20 15:20:24;;;;;;;5.55;2.20;;;;;;;25.25;43.08;100489.16;15676249;28;20111;-47
2023/09/20 15:27:59;;;;;;;7.22;1.75;;;;;;;24.86;43.57;100480.50;15669173;28;20037;-49
2023/09/20 15:35:33;;;;;;;7.38;1.80;;;;;;;24.86;43.42;100483.25;15676687;28;20044;-49
2023/09/20 15:43:15;;;;;;;5.30;1.60;;;;;;;24.33;44.06;100481.16;15661991;28;20041;-45
2023/09/20 15:50:52;;;;;;;4.30;1.50;;;;;;;24.61;43.77;100478.34;15670614;28;20053;-47
2023/09/20 15:58:26;;;;;;;6.22;1.40;;;;;;;24.31;44.35;100466.94;15674734;28;20116;-49
2023/09/20 16:06:01;;;;;;;7.45;1.88;;;;;;;24.70;43.93;100462.75;15689171;28;20037;-46
2023/09/20 16:13:34;;;;;;;7.97;1.50;;;;;;;24.88;43.54;100453.53;15687332;28;20152;-49
2023/09/20 16:21:08;;;;;;;6.22;1.63;;;;;;;24.49;44.17;100453.41;15687282;28;20063;-48
2023/09/20 16:28:42;;;;;;;9.07;1.60;;;;;;;24.24;44.81;100449.28;15677582;28;20052;-46
2023/09/20 16:36:18;;;;;;;6.65;1.90;;;;;;;24.21;44.70;100450.72;15669867;28;20132;-48
2023/09/20 16:43:51;;;;;;;4.55;1.75;;;;;;;24.35;45.08;100456.16;15686426;28;20047;-49
2023/09/20 16:51:27;;;;;;;5.03;2.00;;;;;;;23.97;45.43;100459.19;15671027;28;20041;-45
2023/09/20 16:59:01;;;;;;;5.78;1.65;;;;;;;23.91;45.36;100444.75;15683906;28;20409;-48
2023/09/20 17:06:36;;;;;;;6.85;1.80;;;;;;;23.66;45.90;100445.31;15678991;28;20041;-48
2023/09/20 17:14:10;;;;;;;3.67;1.75;;;;;;;23.21;46.48;100439.53;15682936;28;20048;-47
2023/09/20 17:21:46;;;;;;;5.78;1.83;;;;;;;23.16;47.39;100448.66;15667251;28;20042;-46
2023/09/20 17:29:19;;;;;;;6.00;1.63;;;;;;;23.21;47.11;100447.75;15672568;28;20048;-48
2023/09/20 17:36:54;;;;;;;3.90;1.75;;;;;;;23.17;47.12;100446.75;15688022;28;20071;-45
2023/09/20 17:44:27;;;;;;;5.38;1.70;;;;;;;23.05;46.59;100440.94;15681604;28;20044;-47
2023/09/20 17:52:04;;;;;;;9.75;3.70;;;;;;;23.13;46.85;100443.81;15682252;28;20477;-46
2023/09/20 17:59:38;;;;;;;7.05;2.15;;;;;;;23.00;47.35;100450.06;15673571;28;20131;-46
2023/09/20 18:07:12;;;;;;;7.30;1.85;;;;;;;22.67;47.97;100451.97;15681199;28;20045;-47
2023/09/20 18:14:48;;;;;;;5.13;2.17;;;;;;;22.23;48.51;100464.06;15670729;28;20324;-45
2023/09/20 18:22:24;;;;;;;8.50;1.98;;;;;;;22.20;49.15;100461.94;15671221;28;20041;-45
2023/09/20 18:29:58;;;;;;;8.30;2.10;;;;;;;22.12;49.11;100463.41;15675162;28;20045;-44
2023/09/20 18:37:32;;;;;;;4.95;2.17;;;;;;;22.07;49.48;100452.53;15682675;28;20119;-46
2023/09/20 18:45:06;;;;;;;8.02;2.20;;;;;;;22.17;48.86;100464.47;15675984;28;20045;-48
2023/09/20 18:52:40;;;;;;;5.82;2.15;;;;;;;22.27;48.87;100467.84;15677762;28;20063;-44
2023/09/20 19:00:16;;;;;;;7.72;2.38;;;;;;;22.09;49.32;100466.69;15678032;28;20098;-47
2023/09/20 19:07:50;;;;;;;6.72;2.03;;;;;;;21.70;50.12;100474.31;15677872;28;20060;-48
2023/09/20 19:15:24;;;;;;;7.22;2.25;;;;;;;20.80;52.16;100476.50;15676314;28;20389;-45
2023/09/20 19:22:58;;;;;;;4.40;1.98;;;;;;;20.91;51.89;100476.41;15677176;28;20049;-46
2023/09/20 19:30:33;;;;;;;4.28;2.13;;;;;;;21.03;51.42;100480.41;15675318;28;20040;-45
2023/09/20 19:38:09;;;;;;;7.13;2.20;;;;;;;20.74;52.28;100472.16;15684081;28;20086;-44
2023/09/20 19:45:43;;;;;;;7.10;1.95;;;;;;;20.68;51.97;100475.22;15687770;28;20375;-45
2023/09/20 19:53:18;;;;;;;4.97;2.13;;;;;;;20.71;52.17;100480.94;15689049;28;20422;-45
2023/09/20 20:00:53;;;;;;;5.47;1.92;;;;;;;20.83;51.58;100454.09;15687487;28;20037;-45
2023/09/20 20:08:27;;;;;;;7.82;2.13;;;;;;;20.70;52.19;100448.47;15687374;28;20037;-46
2023/09/20 20:16:02;;;;;;;5.55;1.80;;;;;;;20.54;53.15;100455.97;15686404;28;20060;-45
2023/09/20 20:23:37;;;;;;;9.65;2.47;;;;;;;20.28;54.56;100436.19;15686772;28;20079;-46
2023/09/20 20:31:11;;;;;;;5.90;2.30;;;;;;;19.71;56.26;100441.09;15685747;28;20632;-46
2023/09/20 20:38:45;;;;;;;6.28;2.58;;;;;;;19.56;56.34;100431.06;15683819;28;20048;-46
2023/09/20 20:46:19;;;;;;;9.15;2.65;;;;;;;19.66;54.57;100427.50;15684172;28;20051;-45
2023/09/20 20:53:55;;;;;;;5.40;2.38;;;;;;;19.40;55.68;100420.47;15685146;28;20500;-45
2023/09/20 21:01:29;;;;;;;10.30;2.63;;;;;;;19.46;55.96;100420.22;15684503;28;20425;-45
2023/09/20 21:09:04;;;;;;;5.25;2.22;;;;;;;19.39;55.97;100419.69;15683588;28;20501;-45
2023/09/20 21:16:37;;;;;;;2.90;2.20;;;;;;;19.17;56.83;100394.72;15674240;28;20260;-46
2023/09/20 21:24:12;;;;;;;7.53;2.90;;;;;;;18.77;58.25;100404.56;15683583;28;20041;-47
2023/09/20 21:31:45;;;;;;;4.45;2.50;;;;;;;18.83;57.08;100396.09;15674388;28;20521;-48
2023/09/20 21:39:22;;;;;;;8.43;2.63;;;;;;;18.71;58.05;100386.63;15672583;28;20391;-46
2023/09/20 21:46:55;;;;;;;5.43;2.85;;;;;;;18.44;59.03;100386.84;15681095;28;20095;-48
2023/09/20 21:54:30;;;;;;;6.78;2.50;;;;;;;18.49;57.75;100387.66;15663628;28;20068;-47
2023/09/20 22:02:06;;;;;;;10.52;3.63;;;;;;;18.30;58.03;100378.41;15668353;28;20038;-49
2023/09/20 22:09:40;;;;;;;6.93;3.97;;;;;;;18.35;57.43;100365.66;15667981;28;20076;-45
2023/09/20 22:17:15;;;;;;;7.68;3.83;;;;;;;18.48;57.54;100355.34;15655330;28;20053;-47
2023/09/20 22:24:53;;;;;;;9.35;4.03;;;;;;;18.31;58.59;100353.69;15673821;28;20458;-45
2023/09/20 22:32:27;;;;;;;7.75;4.03;;;;;;;18.38;57.68;100355.34;15672077;28;20056;-45
2023/09/20 22:40:02;;;;;;;5.65;3.40;;;;;;;18.41;57.58;100354.78;15673236;28;20490;-47
2023/09/20 22:47:37;;;;;;;8.02;3.75;;;;;;;18.47;56.36;100351.00;15670715;28;20065;-49
2023/09/20 22:55:13;;;;;;;8.38;3.17;;;;;;;18.64;56.89;100350.69;15677057;28;20037;-45
2023/09/20 23:02:46;;;;;;;5.38;2.83;;;;;;;18.59;57.52;100346.06;15677453;28;20444;-47
2023/09/20 23:10:23;;;;;;;;;;;;;;;18.27;59.34;100343.63;15672777;28;20124;-49
2023/09/20 23:18:02;;;;;;;5.78;3.30;;;;;;;17.93;59.79;100346.03;15672835;28;20011;-49
2023/09/20 23:25:41;;;;;;;5.97;3.00;;;;;;;17.70;61.04;100328.31;15676133;28;20032;-49
2023/09/20 23:33:16;;;;;;;6.90;3.42;;;;;;;17.46;61.89;100323.34;15672018;28;20048;-46
2023/09/20 23:40:52;;;;;;;5.63;3.10;;;;;;;17.34;62.09;100310.00;15675959;28;20163;-49
2023/09/20 23:48:25;;;;;;;6.88;2.85;;;;;;;17.31;63.00;100320.59;15676286;28;20037;-49
2023/09/20 23:55:59;;;;;;;6.70;3.13;;;;;;;17.34;62.13;100315.41;15676191;28;20127;-46
